Maldives Meteorological Service

METAR

Station
VRMM
METAR VRMM 182300Z 10006KT 9999 SCT017TCU BKN270 28/25 Q1009 TEMPO 5000 -SHRA FEW017CB=
VRMH
METAR VRMH 182300Z 08005KT 9999 FEW018TCU BKN270 29/25 Q1009=
VRMK
METAR VRMK 182300Z 11004KT 9999 FEW018TCU SCT270 28/25 Q1009=
VRMT
METAR VRMT 182300Z 14003KT 9999 SCT017 FEW018CB BKN270 28/25 Q1009 CB E=
VRMG
METAR VRMG 182300Z 11006KT 9999 FEW018 BKN270 27/26 Q1009 NOSIG=
Last Updated : 2019-11-19 03:59:18

SPECI

Station
VRMM
VRMH
VRMK
VRMT
VRMG
Last Updated : 2019-11-19 03:59:18